createdAt,value
2022-11-06T00:00:49.021Z,42.17
2022-11-06T00:03:17.944Z,38.42
2022-11-06T00:06:04.237Z,40.20
2022-11-06T00:08:35.368Z,41.45
2022-11-06T00:11:10.279Z,42.75
2022-11-06T00:13:40.166Z,51.92
2022-11-06T00:16:10.493Z,34.00
2022-11-06T00:18:40.179Z,39.38
2022-11-06T00:21:09.708Z,36.85
2022-11-06T00:23:38.782Z,33.93
2022-11-06T00:26:08.592Z,40.97
2022-11-06T00:28:37.343Z,46.72
2022-11-06T00:31:08.496Z,40.60
2022-11-06T00:33:37.387Z,34.58
2022-11-06T00:36:07.198Z,44.20
2022-11-06T00:38:36.121Z,41.95
2022-11-06T00:41:05.391Z,42.15
2022-11-06T00:43:34.204Z,41.88
2022-11-06T00:46:04.012Z,35.65
2022-11-06T00:48:34.341Z,40.92
2022-11-06T00:51:04.285Z,41.25
2022-11-06T00:53:32.936Z,47.55
2022-11-06T00:56:08.794Z,44.13
2022-11-06T00:58:37.769Z,47.05
2022-11-06T01:01:10.874Z,55.67
2022-11-06T01:03:42.519Z,46.92
2022-11-06T01:06:13.745Z,48.47
2022-11-06T01:08:42.981Z,34.92
2022-11-06T01:11:13.509Z,41.92
2022-11-06T01:13:41.779Z,57.55
2022-11-06T01:16:14.306Z,50.53
2022-11-06T01:18:45.562Z,46.75
2022-11-06T01:21:16.608Z,62.60
2022-11-06T01:23:45.873Z,46.50
2022-11-06T01:26:18.632Z,44.00
2022-11-06T01:28:58.034Z,48.60
2022-11-06T01:31:29.288Z,55.15
2022-11-06T01:34:00.500Z,55.35
2022-11-06T01:36:29.824Z,58.65
2022-11-06T01:39:01.908Z,50.47
2022-11-06T01:41:32.774Z,41.00
2022-11-06T01:44:04.305Z,55.17
2022-11-06T01:46:37.758Z,51.50
2022-11-06T01:49:17.986Z,49.00
2022-11-06T01:51:48.928Z,46.70
2022-11-06T01:54:17.971Z,65.95
2022-11-06T01:56:50.075Z,49.03
2022-11-06T01:59:21.180Z,44.00
2022-11-06T02:01:49.468Z,53.67
2022-11-06T02:04:28.284Z,43.58
2022-11-06T02:06:58.184Z,51.72
2022-11-06T02:09:27.320Z,37.42
2022-11-06T02:12:01.995Z,42.13
2022-11-06T02:14:35.978Z,44.05
2022-11-06T02:17:11.163Z,45.15
2022-11-06T02:19:57.486Z,43.60
2022-11-06T02:22:41.964Z,46.80
2022-11-06T02:25:17.200Z,45.15
2022-11-06T02:27:49.845Z,51.70
2022-11-06T02:30:18.826Z,47.72
2022-11-06T02:32:51.201Z,44.80
2022-11-06T02:35:22.940Z,56.58
2022-11-06T02:37:55.004Z,60.13
2022-11-06T02:40:25.190Z,61.38
2022-11-06T02:42:57.376Z,54.10
2022-11-06T02:45:26.666Z,65.60
2022-11-06T02:47:56.121Z,53.35
2022-11-06T02:50:27.730Z,61.33
2022-11-06T02:52:57.626Z,58.45
2022-11-06T02:55:30.994Z,65.93
2022-11-06T02:58:05.417Z,65.45
2022-11-06T03:00:36.036Z,55.55
2022-11-06T03:03:08.476Z,63.75
2022-11-06T03:05:40.816Z,76.53
2022-11-06T03:08:13.356Z,56.67
2022-11-06T03:10:46.633Z,60.95
2022-11-06T03:13:20.776Z,62.15
2022-11-06T03:15:55.199Z,73.65
2022-11-06T03:18:28.943Z,48.47
2022-11-06T03:21:01.704Z,65.00
2022-11-06T03:23:34.894Z,58.55
2022-11-06T03:26:14.565Z,66.75
2022-11-06T03:28:50.702Z,66.30
2022-11-06T03:31:20.850Z,66.43
2022-11-06T03:33:52.429Z,59.20
2022-11-06T03:36:23.689Z,59.17
2022-11-06T03:38:54.470Z,71.72
2022-11-06T03:41:27.014Z,65.75
2022-11-06T03:43:57.878Z,62.20
2022-11-06T03:46:27.903Z,66.63
2022-11-06T03:48:58.715Z,62.05
2022-11-06T03:51:31.564Z,79.57
2022-11-06T03:54:02.222Z,67.25
2022-11-06T03:56:33.906Z,66.45
2022-11-06T03:59:06.067Z,89.18
2022-11-06T04:01:37.328Z,74.50
2022-11-06T04:04:08.267Z,86.93
2022-11-06T04:06:39.019Z,85.05
2022-11-06T04:09:27.426Z,67.07
2022-11-06T04:12:14.705Z,78.00
2022-11-06T04:14:47.001Z,102.50
2022-11-06T04:17:16.852Z,70.32
2022-11-06T04:19:48.471Z,86.93
2022-11-06T04:22:26.045Z,106.57
2022-11-06T04:25:21.231Z,96.50
2022-11-06T04:28:00.027Z,80.20
2022-11-06T04:30:32.134Z,179.70
2022-11-06T04:33:07.766Z,260.77
2022-11-06T04:35:44.692Z,281.42
2022-11-06T04:38:17.912Z,242.27
2022-11-06T04:40:53.967Z,242.57
2022-11-06T04:43:26.415Z,294.27
2022-11-06T04:45:58.620Z,210.80
2022-11-06T04:48:27.542Z,299.08
2022-11-06T04:50:58.229Z,353.58
2022-11-06T04:53:27.153Z,259.50
2022-11-06T04:55:57.126Z,412.13
2022-11-06T05:00:54.516Z,319.55
2022-11-06T05:03:24.619Z,346.67
2022-11-06T05:05:53.256Z,238.75
2022-11-06T05:08:22.269Z,402.60
2022-11-06T05:10:50.565Z,283.05
2022-11-06T05:13:19.106Z,381.83
2022-11-06T05:15:47.743Z,283.88
2022-11-06T05:18:16.720Z,252.55
2022-11-06T05:20:47.201Z,267.20
2022-11-06T05:23:15.735Z,246.63
2022-11-06T05:25:44.367Z,192.27
2022-11-06T05:28:13.108Z,244.40
2022-11-06T05:30:41.970Z,444.63
2022-11-06T05:33:10.597Z,245.02
2022-11-06T05:35:39.266Z,254.48
2022-11-06T05:38:09.327Z,241.32
2022-11-06T05:40:37.607Z,283.92
2022-11-06T05:43:06.217Z,174.02
2022-11-06T05:45:34.947Z,268.67
2022-11-06T05:48:03.582Z,216.65
2022-11-06T05:50:32.216Z,432.80
2022-11-06T05:53:05.577Z,177.65
2022-11-06T05:55:35.311Z,266.90
2022-11-06T05:58:03.984Z,221.25
2022-11-06T06:00:32.721Z,251.75
2022-11-06T06:03:03.160Z,374.27
2022-11-06T06:08:00.376Z,234.70
2022-11-06T06:10:29.182Z,297.20
2022-11-06T06:12:59.281Z,337.05
2022-11-06T06:15:27.954Z,353.88
2022-11-06T06:17:56.592Z,268.92
2022-11-06T06:20:25.597Z,137.05
2022-11-06T06:22:57.439Z,323.40
2022-11-06T06:25:27.075Z,177.27
2022-11-06T06:27:56.072Z,229.38
2022-11-06T06:30:26.821Z,189.33
2022-11-06T06:32:55.483Z,223.85
2022-11-06T06:35:24.327Z,174.38
2022-11-06T06:37:54.269Z,287.48
2022-11-06T06:40:23.316Z,194.77
2022-11-06T06:42:52.117Z,332.30
2022-11-06T06:45:20.765Z,186.95
2022-11-06T06:47:50.871Z,613.30
2022-11-06T06:50:19.675Z,452.15
2022-11-06T06:52:48.105Z,239.23
2022-11-06T06:55:17.075Z,321.33
2022-11-06T06:57:45.809Z,302.65
2022-11-06T07:00:14.995Z,230.13
2022-11-06T07:02:43.749Z,589.08
2022-11-06T07:05:13.809Z,288.60
2022-11-06T07:07:42.158Z,284.92
2022-11-06T07:10:11.086Z,373.00
2022-11-06T07:12:39.743Z,289.73
2022-11-06T07:15:09.919Z,242.90
2022-11-06T07:17:38.623Z,355.00
2022-11-06T07:20:08.452Z,377.45
2022-11-06T07:22:38.312Z,475.10
2022-11-06T07:25:08.108Z,234.80
2022-11-06T07:27:36.747Z,212.50
2022-11-06T07:30:05.961Z,279.13
2022-11-06T07:32:34.647Z,120.07
2022-11-06T07:35:03.379Z,592.88
2022-11-06T07:37:31.634Z,241.90
2022-11-06T07:40:01.609Z,462.77
2022-11-06T07:42:30.508Z,302.73
2022-11-06T07:45:04.656Z,128.18
2022-11-06T07:47:33.435Z,78.43
2022-11-06T07:50:02.199Z,285.50
2022-11-06T07:52:30.481Z,204.00
2022-11-06T07:54:59.135Z,173.68
2022-11-06T07:57:29.355Z,238.80
2022-11-06T07:59:57.951Z,249.23
2022-11-06T08:02:26.646Z,324.13
2022-11-06T08:04:55.033Z,329.73
2022-11-06T08:07:23.975Z,125.22
2022-11-06T08:09:52.789Z,235.80
2022-11-06T08:12:21.824Z,317.38
2022-11-06T08:14:51.929Z,401.65
2022-11-06T08:17:21.026Z,111.43
2022-11-06T08:19:49.328Z,100.85
2022-11-06T08:22:19.206Z,285.25
2022-11-06T08:24:47.838Z,210.52
2022-11-06T08:27:16.478Z,286.15
2022-11-06T08:29:45.109Z,158.95
2022-11-06T08:32:15.223Z,290.25
2022-11-06T08:34:43.566Z,177.02
2022-11-06T08:37:12.356Z,165.82
2022-11-06T08:39:41.020Z,67.20
2022-11-06T08:42:09.718Z,308.50
2022-11-06T08:44:38.491Z,68.18
2022-11-06T08:47:07.073Z,233.05
2022-11-06T08:49:36.787Z,308.77
2022-11-06T08:52:05.376Z,238.88
2022-11-06T08:54:34.039Z,198.15
2022-11-06T08:57:02.779Z,213.02
2022-11-06T08:59:31.406Z,292.17
2022-11-06T09:02:01.014Z,83.78
2022-11-06T09:04:29.594Z,59.17
2022-11-06T09:06:59.830Z,111.57
2022-11-06T09:09:32.153Z,152.65
2022-11-06T09:12:01.148Z,164.52
2022-11-06T09:14:29.820Z,412.25
2022-11-06T09:16:59.569Z,257.63
2022-11-06T09:19:27.923Z,166.23
2022-11-06T09:21:56.527Z,122.47
2022-11-06T09:24:43.604Z,82.75
2022-11-06T09:27:15.244Z,48.78
2022-11-06T09:29:44.658Z,117.68
2022-11-06T09:32:13.301Z,96.43
2022-11-06T09:34:41.652Z,77.55
2022-11-06T09:37:10.464Z,55.95
2022-11-06T09:39:40.666Z,49.55
2022-11-06T09:42:16.019Z,43.33
2022-11-06T09:44:54.196Z,57.55
2022-11-06T09:47:26.994Z,55.95
2022-11-06T09:49:56.297Z,68.80
2022-11-06T09:52:33.050Z,92.73
2022-11-06T09:55:05.362Z,49.80
2022-11-06T09:57:38.856Z,47.72
2022-11-06T10:00:12.133Z,55.97
2022-11-06T10:02:44.246Z,42.95
2022-11-06T10:05:19.733Z,41.05
2022-11-06T10:07:48.373Z,40.40
2022-11-06T10:10:20.363Z,34.40
2022-11-06T10:13:01.414Z,32.17
2022-11-06T10:15:34.968Z,33.38
2022-11-06T10:18:09.005Z,43.13
2022-11-06T10:20:48.946Z,51.25
2022-11-06T10:23:21.707Z,49.90
2022-11-06T10:26:02.029Z,53.22
2022-11-06T10:28:39.539Z,35.70
2022-11-06T10:31:14.776Z,42.30
2022-11-06T10:33:52.692Z,35.42
2022-11-06T10:36:24.410Z,44.35
2022-11-06T10:38:54.186Z,41.35
2022-11-06T10:41:26.403Z,45.13
2022-11-06T10:43:58.008Z,48.40
2022-11-06T10:46:29.874Z,51.22
2022-11-06T10:49:01.036Z,45.42
2022-11-06T10:51:44.070Z,44.33
2022-11-06T10:54:37.098Z,40.80
2022-11-06T10:57:19.043Z,42.45
2022-11-06T10:59:47.692Z,43.17
2022-11-06T11:02:25.070Z,42.72
2022-11-06T11:04:57.696Z,44.95
2022-11-06T11:07:28.277Z,37.22
2022-11-06T11:09:57.020Z,44.50
2022-11-06T11:12:29.223Z,33.42
2022-11-06T11:15:22.249Z,32.65
2022-11-06T11:18:09.168Z,31.40
2022-11-06T11:20:39.433Z,32.78
2022-11-06T11:23:15.957Z,30.50
2022-11-06T11:25:45.725Z,27.73
2022-11-06T11:28:30.465Z,28.95
2022-11-06T11:31:09.059Z,31.95
2022-11-06T11:33:38.099Z,29.88
2022-11-06T11:36:07.772Z,28.45
2022-11-06T11:38:37.730Z,23.70
2022-11-06T11:41:12.156Z,31.25
2022-11-06T11:43:42.197Z,34.65
2022-11-06T11:46:21.439Z,22.63
2022-11-06T11:48:51.878Z,23.05
2022-11-06T11:51:29.830Z,22.52
2022-11-06T11:54:02.497Z,25.65
2022-11-06T11:57:02.329Z,20.65
2022-11-06T11:59:23.527Z,22.58
2022-11-06T12:01:52.214Z,25.08
2022-11-06T12:04:24.659Z,20.85
2022-11-06T12:06:59.773Z,22.50
2022-11-06T12:09:30.782Z,23.77
2022-11-06T12:12:01.264Z,23.50
2022-11-06T12:14:34.605Z,18.48
2022-11-06T12:17:17.168Z,19.35
2022-11-06T12:19:51.282Z,19.13
2022-11-06T12:22:25.956Z,24.35
2022-11-06T12:24:56.134Z,19.10
2022-11-06T12:27:27.204Z,18.98
2022-11-06T12:30:04.437Z,25.85
2022-11-06T12:32:49.090Z,22.95
2022-11-06T12:35:23.857Z,20.25
2022-11-06T12:37:59.361Z,20.25
2022-11-06T12:40:31.038Z,22.27
2022-11-06T12:43:06.928Z,18.27
2022-11-06T12:45:48.028Z,23.73
2022-11-06T12:48:28.416Z,16.08
2022-11-06T12:51:03.008Z,14.15
2022-11-06T12:53:42.930Z,22.85
2022-11-06T12:56:17.251Z,18.00
2022-11-06T12:58:59.594Z,16.00
2022-11-06T13:01:43.151Z,17.27
2022-11-06T13:04:19.469Z,14.02
2022-11-06T13:07:21.750Z,16.20
2022-11-06T13:09:55.772Z,19.35
2022-11-06T13:12:28.806Z,16.73
2022-11-06T13:15:07.524Z,20.48
2022-11-06T13:17:42.906Z,19.15
2022-11-06T13:20:16.869Z,15.70
2022-11-06T13:22:49.859Z,14.25
2022-11-06T13:25:21.669Z,18.15
2022-11-06T13:27:55.146Z,23.23
2022-11-06T13:30:25.599Z,21.20
2022-11-06T13:33:03.364Z,18.27
2022-11-06T13:35:33.734Z,15.75
2022-11-06T13:43:04.225Z,18.52
2022-11-06T13:45:37.009Z,19.38
2022-11-06T13:48:17.077Z,18.83
2022-11-06T13:50:50.749Z,18.63
2022-11-06T13:53:24.103Z,14.68
2022-11-06T13:56:01.470Z,14.38
2022-11-06T13:58:55.864Z,15.77
2022-11-06T14:01:33.901Z,12.60
2022-11-06T14:04:31.824Z,15.95
2022-11-06T14:07:01.974Z,20.25
2022-11-06T14:12:01.693Z,17.17
2022-11-06T14:14:31.632Z,15.48
2022-11-06T14:17:12.043Z,17.70
2022-11-06T14:19:47.612Z,18.63
2022-11-06T14:22:26.705Z,15.10
2022-11-06T14:25:01.208Z,16.30
2022-11-06T14:28:05.648Z,15.40
2022-11-06T14:33:59.925Z,29.35
2022-11-06T14:36:37.581Z,17.13
2022-11-06T14:39:12.302Z,18.15
2022-11-06T14:41:58.840Z,29.02
2022-11-06T14:44:36.553Z,21.23
2022-11-06T14:47:07.859Z,16.60
2022-11-06T14:49:40.869Z,21.77
2022-11-06T14:52:12.788Z,18.17
2022-11-06T14:54:42.964Z,17.08
2022-11-06T14:57:16.925Z,18.92
2022-11-06T14:59:45.940Z,18.77
2022-11-06T15:02:19.226Z,14.95
2022-11-06T15:04:53.952Z,21.10
2022-11-06T15:08:03.422Z,16.73
2022-11-06T15:10:50.141Z,18.63
2022-11-06T15:13:31.238Z,19.88
2022-11-06T15:16:04.672Z,22.45
2022-11-06T15:18:37.251Z,22.65
2022-11-06T15:21:09.756Z,30.55
2022-11-06T15:23:43.341Z,28.42
2022-11-06T15:26:25.477Z,32.22
2022-11-06T15:29:12.848Z,34.70
2022-11-06T15:31:42.298Z,35.63
2022-11-06T15:34:17.491Z,33.15
2022-11-06T15:36:50.788Z,36.03
2022-11-06T15:39:25.279Z,34.95
2022-11-06T15:41:53.957Z,41.65
2022-11-06T15:44:24.681Z,37.40
2022-11-06T15:49:24.577Z,35.40
2022-11-06T15:51:55.055Z,30.85
2022-11-06T15:54:36.312Z,26.17
2022-11-06T15:57:07.728Z,23.92
2022-11-06T15:59:36.846Z,26.13
2022-11-06T16:02:06.830Z,23.80
2022-11-06T16:04:36.039Z,29.17
2022-11-06T16:07:05.898Z,29.05
2022-11-06T16:09:36.167Z,32.70
2022-11-06T16:12:05.197Z,30.88
2022-11-06T16:14:34.720Z,31.00
2022-11-06T16:17:10.835Z,29.47
2022-11-06T16:19:40.737Z,36.75
2022-11-06T16:22:11.384Z,31.00
2022-11-06T16:24:46.139Z,27.58
2022-11-06T16:27:15.697Z,35.53
2022-11-06T16:29:48.080Z,38.10
2022-11-06T16:32:18.768Z,31.30
2022-11-06T16:34:48.258Z,37.08
2022-11-06T16:37:39.949Z,36.85
2022-11-06T16:40:42.220Z,35.65
2022-11-06T16:43:17.015Z,40.15
2022-11-06T16:45:56.848Z,32.92
2022-11-06T16:48:36.748Z,35.55
2022-11-06T16:51:11.001Z,44.92
2022-11-06T16:53:57.203Z,51.75
2022-11-06T16:56:29.327Z,54.20
2022-11-06T16:59:02.770Z,42.53
2022-11-06T17:01:38.698Z,43.58
2022-11-06T17:04:08.009Z,51.15
2022-11-06T17:06:38.077Z,54.65
2022-11-06T17:09:10.103Z,56.53
2022-11-06T17:11:39.151Z,60.97
2022-11-06T17:14:19.689Z,78.72
2022-11-06T17:16:50.727Z,78.72
2022-11-06T17:19:20.636Z,61.53
2022-11-06T17:21:49.835Z,80.18
2022-11-06T17:24:36.046Z,51.55
2022-11-06T17:27:06.216Z,55.25
2022-11-06T17:29:37.038Z,55.35
2022-11-06T17:32:06.052Z,51.13
2022-11-06T17:34:34.719Z,57.33
2022-11-06T17:37:03.395Z,55.85
2022-11-06T17:39:32.955Z,57.25
2022-11-06T17:42:01.534Z,45.23
2022-11-06T17:44:30.069Z,53.55
2022-11-06T17:47:00.103Z,46.80
2022-11-06T17:49:28.373Z,58.97
2022-11-06T17:52:01.099Z,55.08
2022-11-06T17:54:32.398Z,51.03
2022-11-06T17:57:02.886Z,58.47
2022-11-06T17:59:31.711Z,55.95
2022-11-06T18:02:02.394Z,60.13
2022-11-06T18:07:00.401Z,65.88
2022-11-06T18:09:30.217Z,62.33
2022-11-06T18:11:59.018Z,63.85
2022-11-06T18:14:28.441Z,68.25
2022-11-06T18:16:56.947Z,64.72
2022-11-06T18:19:27.857Z,74.80
2022-11-06T18:21:56.573Z,74.75
2022-11-06T18:24:25.844Z,71.22
2022-11-06T18:26:54.690Z,65.13
2022-11-06T18:29:23.490Z,77.15
2022-11-06T18:31:51.760Z,69.50
2022-11-06T18:34:23.677Z,68.60
2022-11-06T18:36:53.761Z,75.60
2022-11-06T18:39:22.476Z,90.13
2022-11-06T18:41:51.310Z,78.90
2022-11-06T18:44:20.411Z,64.30
2022-11-06T18:46:48.696Z,76.78
2022-11-06T18:49:17.466Z,75.75
2022-11-06T18:51:46.272Z,76.18
2022-11-06T18:54:16.384Z,71.22
2022-11-06T18:56:45.026Z,60.42
2022-11-06T18:59:19.606Z,66.75
2022-11-06T19:01:48.710Z,73.25
2022-11-06T19:04:17.683Z,66.20
2022-11-06T19:06:46.415Z,59.92
2022-11-06T19:09:16.439Z,64.80
2022-11-06T19:11:45.191Z,66.80
2022-11-06T19:14:13.830Z,64.00
2022-11-06T19:16:42.182Z,64.60
2022-11-06T19:19:12.421Z,60.42
2022-11-06T19:24:16.686Z,64.15
2022-11-06T19:26:45.348Z,61.95
2022-11-06T19:29:13.961Z,75.93
2022-11-06T19:31:42.755Z,63.22
2022-11-06T19:34:14.166Z,64.03
2022-11-06T19:36:42.950Z,64.45
2022-11-06T19:39:11.644Z,75.13
2022-11-06T19:41:41.850Z,78.15
2022-11-06T19:44:10.673Z,76.82
2022-11-06T19:46:39.065Z,57.78
2022-11-06T19:49:09.311Z,78.13
2022-11-06T19:51:38.847Z,74.88
2022-11-06T19:54:07.820Z,67.17
2022-11-06T19:56:36.575Z,70.45
2022-11-06T19:59:26.750Z,68.30
2022-11-06T20:01:55.197Z,69.60
2022-11-06T20:04:24.162Z,66.70
2022-11-06T20:06:52.782Z,71.95
2022-11-06T20:09:21.590Z,79.97
2022-11-06T20:11:50.607Z,68.53
2022-11-06T20:14:21.900Z,76.68
2022-11-06T20:16:51.590Z,80.10
2022-11-06T20:19:23.120Z,72.95
2022-11-06T20:21:52.066Z,66.63
2022-11-06T20:24:21.243Z,67.40
2022-11-06T20:26:49.967Z,69.05
2022-11-06T20:29:18.585Z,70.10
2022-11-06T20:31:46.861Z,68.50
2022-11-06T20:34:16.980Z,68.03
2022-11-06T20:36:45.636Z,73.30
2022-11-06T20:39:16.751Z,74.53
2022-11-06T20:41:45.650Z,65.68
2022-11-06T20:44:14.260Z,69.72
2022-11-06T20:46:44.288Z,64.65
2022-11-06T20:49:16.350Z,72.10
2022-11-06T20:52:12.093Z,69.88
2022-11-06T20:54:33.805Z,77.65
2022-11-06T20:57:02.552Z,68.15
2022-11-06T20:59:31.169Z,74.13
2022-11-06T21:01:59.928Z,75.20
2022-11-06T21:04:29.769Z,84.22
2022-11-06T21:06:58.448Z,89.15
2022-11-06T21:09:27.182Z,79.18
2022-11-06T21:11:55.664Z,76.82
2022-11-06T21:14:24.284Z,71.97
2022-11-06T21:16:53.324Z,76.55
2022-11-06T21:19:21.977Z,71.18
2022-11-06T21:21:52.417Z,74.50
2022-11-06T21:24:21.393Z,73.68
2022-11-06T21:26:51.878Z,67.60
2022-11-06T21:29:20.662Z,70.28
2022-11-06T21:31:49.400Z,63.22
2022-11-06T21:34:18.705Z,73.32
2022-11-06T21:36:47.764Z,74.57
2022-11-06T21:39:19.237Z,74.43
2022-11-06T21:41:48.293Z,71.88
2022-11-06T21:44:19.134Z,71.45
2022-11-06T21:46:47.719Z,81.57
2022-11-06T21:49:16.388Z,79.32
2022-11-06T21:51:44.959Z,78.15
2022-11-06T21:54:31.063Z,80.80
2022-11-06T21:57:01.125Z,87.47
2022-11-06T21:59:30.628Z,82.47
2022-11-06T22:01:59.429Z,77.60
2022-11-06T22:04:27.737Z,79.63
2022-11-06T22:06:56.740Z,75.95
2022-11-06T22:09:26.235Z,90.03
2022-11-06T22:11:54.890Z,76.20
2022-11-06T22:14:25.031Z,84.90
2022-11-06T22:16:53.707Z,83.75
2022-11-06T22:19:22.405Z,80.30
2022-11-06T22:21:51.067Z,82.00
2022-11-06T22:24:19.691Z,83.32
2022-11-06T22:26:48.299Z,84.88
2022-11-06T22:29:16.889Z,86.57
2022-11-06T22:31:46.531Z,76.70
2022-11-06T22:34:15.468Z,84.47
2022-11-06T22:36:44.118Z,78.88
2022-11-06T22:39:13.220Z,78.18
2022-11-06T22:41:42.404Z,79.07
2022-11-06T22:44:12.734Z,83.55
2022-11-06T22:46:41.587Z,79.85
2022-11-06T22:49:11.602Z,75.97
2022-11-06T22:51:40.310Z,79.95
2022-11-06T22:54:09.007Z,85.65
2022-11-06T22:56:37.624Z,71.15
2022-11-06T22:59:09.226Z,72.78
2022-11-06T23:01:41.900Z,79.15
2022-11-06T23:04:16.005Z,76.57
2022-11-06T23:06:45.735Z,80.55
2022-11-06T23:09:15.170Z,82.30
2022-11-06T23:11:46.053Z,95.07
2022-11-06T23:14:15.020Z,86.55
2022-11-06T23:17:00.853Z,100.72
2022-11-06T23:19:32.718Z,87.30
2022-11-06T23:22:18.893Z,87.97
2022-11-06T23:24:47.836Z,89.45
2022-11-06T23:27:16.644Z,76.93
2022-11-06T23:29:45.450Z,72.88
2022-11-06T23:32:14.095Z,81.68
2022-11-06T23:34:43.679Z,85.35
2022-11-06T23:37:12.352Z,91.85
2022-11-06T23:39:41.028Z,89.03
2022-11-06T23:42:09.731Z,89.57
2022-11-06T23:44:55.722Z,89.45
2022-11-06T23:47:24.358Z,85.13
2022-11-06T23:49:53.971Z,86.35
2022-11-06T23:52:22.790Z,95.78
2022-11-06T23:54:51.473Z,90.10
2022-11-06T23:57:20.214Z,74.95
2022-11-06T23:59:49.093Z,75.68
